sensor_id;sensor_type;location;lat;lon;timestamp;P1;durP1;ratioP1;P2;durP2;ratioP2
31282;SDS011;17915;52.540;13.604;2023-11-21T00:02:04;19.73;;;10.77;;
31282;SDS011;17915;52.540;13.604;2023-11-21T00:04:30;28.93;;;12.83;;
31282;SDS011;17915;52.540;13.604;2023-11-21T00:06:55;22.77;;;11.07;;
31282;SDS011;17915;52.540;13.604;2023-11-21T00:09:20;29.60;;;13.10;;
31282;SDS011;17915;52.540;13.604;2023-11-21T00:11:46;21.95;;;11.55;;
31282;SDS011;17915;52.540;13.604;2023-11-21T00:14:12;29.83;;;14.57;;
31282;SDS011;17915;52.540;13.604;2023-11-21T00:16:37;27.40;;;13.63;;
31282;SDS011;17915;52.540;13.604;2023-11-21T00:19:03;31.30;;;13.17;;
31282;SDS011;17915;52.540;13.604;2023-11-21T00:21:28;28.23;;;14.40;;
31282;SDS011;17915;52.540;13.604;2023-11-21T00:23:54;23.90;;;15.90;;
31282;SDS011;17915;52.540;13.604;2023-11-21T00:26:19;35.73;;;16.20;;
31282;SDS011;17915;52.540;13.604;2023-11-21T00:28:45;38.37;;;17.70;;
31282;SDS011;17915;52.540;13.604;2023-11-21T00:31:10;30.73;;;17.00;;
31282;SDS011;17915;52.540;13.604;2023-11-21T00:33:35;29.00;;;16.07;;
31282;SDS011;17915;52.540;13.604;2023-11-21T00:36:01;44.60;;;16.83;;
31282;SDS011;17915;52.540;13.604;2023-11-21T00:38:26;47.17;;;18.80;;
31282;SDS011;17915;52.540;13.604;2023-11-21T00:40:52;38.47;;;17.13;;
31282;SDS011;17915;52.540;13.604;2023-11-21T00:43:21;41.78;;;18.02;;
31282;SDS011;17915;52.540;13.604;2023-11-21T00:48:14;42.00;;;18.75;;
31282;SDS011;17915;52.540;13.604;2023-11-21T00:50:39;52.63;;;20.77;;
31282;SDS011;17915;52.540;13.604;2023-11-21T00:53:05;50.67;;;20.13;;
31282;SDS011;17915;52.540;13.604;2023-11-21T00:55:32;51.58;;;19.20;;
31282;SDS011;17915;52.540;13.604;2023-11-21T00:57:58;59.58;;;23.83;;
31282;SDS011;17915;52.540;13.604;2023-11-21T01:00:23;43.33;;;21.10;;
31282;SDS011;17915;52.540;13.604;2023-11-21T01:02:49;50.90;;;21.47;;
31282;SDS011;17915;52.540;13.604;2023-11-21T01:05:14;56.50;;;21.60;;
31282;SDS011;17915;52.540;13.604;2023-11-21T01:07:39;57.53;;;21.47;;
31282;SDS011;17915;52.540;13.604;2023-11-21T01:10:05;49.53;;;23.07;;
31282;SDS011;17915;52.540;13.604;2023-11-21T01:12:33;46.38;;;22.88;;
31282;SDS011;17915;52.540;13.604;2023-11-21T01:14:59;53.17;;;21.75;;
31282;SDS011;17915;52.540;13.604;2023-11-21T01:17:25;60.92;;;22.38;;
31282;SDS011;17915;52.540;13.604;2023-11-21T01:19:51;74.37;;;24.93;;
31282;SDS011;17915;52.540;13.604;2023-11-21T01:22:16;67.40;;;24.73;;
31282;SDS011;17915;52.540;13.604;2023-11-21T01:24:47;65.85;;;23.80;;
31282;SDS011;17915;52.540;13.604;2023-11-21T01:27:12;51.27;;;18.90;;
31282;SDS011;17915;52.540;13.604;2023-11-21T01:29:38;64.33;;;20.97;;
31282;SDS011;17915;52.540;13.604;2023-11-21T01:32:03;51.43;;;20.93;;
31282;SDS011;17915;52.540;13.604;2023-11-21T01:34:29;59.80;;;20.50;;
31282;SDS011;17915;52.540;13.604;2023-11-21T01:39:21;61.08;;;22.20;;
31282;SDS011;17915;52.540;13.604;2023-11-21T01:41:49;66.18;;;24.42;;
31282;SDS011;17915;52.540;13.604;2023-11-21T01:46:41;77.32;;;22.65;;
31282;SDS011;17915;52.540;13.604;2023-11-21T01:49:07;70.60;;;21.67;;
31282;SDS011;17915;52.540;13.604;2023-11-21T01:51:34;71.90;;;23.40;;
31282;SDS011;17915;52.540;13.604;2023-11-21T01:54:00;60.58;;;22.27;;
31282;SDS011;17915;52.540;13.604;2023-11-21T01:56:26;56.77;;;18.47;;
31282;SDS011;17915;52.540;13.604;2023-11-21T01:58:51;56.25;;;18.70;;
31282;SDS011;17915;52.540;13.604;2023-11-21T02:01:17;55.03;;;16.87;;
31282;SDS011;17915;52.540;13.604;2023-11-21T02:03:43;61.05;;;19.80;;
31282;SDS011;17915;52.540;13.604;2023-11-21T02:06:08;46.37;;;16.60;;
31282;SDS011;17915;52.540;13.604;2023-11-21T02:08:34;48.63;;;16.27;;
31282;SDS011;17915;52.540;13.604;2023-11-21T02:10:59;52.93;;;15.33;;
31282;SDS011;17915;52.540;13.604;2023-11-21T02:13:25;46.13;;;14.70;;
31282;SDS011;17915;52.540;13.604;2023-11-21T02:15:50;33.83;;;13.17;;
31282;SDS011;17915;52.540;13.604;2023-11-21T02:18:17;44.55;;;13.95;;
31282;SDS011;17915;52.540;13.604;2023-11-21T02:20:43;31.30;;;16.07;;
31282;SDS011;17915;52.540;13.604;2023-11-21T02:23:08;32.00;;;14.30;;
31282;SDS011;17915;52.540;13.604;2023-11-21T02:25:33;32.70;;;13.70;;
31282;SDS011;17915;52.540;13.604;2023-11-21T02:28:00;30.30;;;11.73;;
31282;SDS011;17915;52.540;13.604;2023-11-21T02:30:26;24.73;;;12.45;;
31282;SDS011;17915;52.540;13.604;2023-11-21T02:32:57;35.45;;;11.20;;
31282;SDS011;17915;52.540;13.604;2023-11-21T02:35:22;28.60;;;9.70;;
31282;SDS011;17915;52.540;13.604;2023-11-21T02:37:48;24.30;;;11.13;;
31282;SDS011;17915;52.540;13.604;2023-11-21T02:40:13;30.38;;;10.40;;
31282;SDS011;17915;52.540;13.604;2023-11-21T02:42:42;23.58;;;10.95;;
31282;SDS011;17915;52.540;13.604;2023-11-21T02:45:12;29.15;;;10.02;;
31282;SDS011;17915;52.540;13.604;2023-11-21T02:47:39;26.08;;;12.55;;
31282;SDS011;17915;52.540;13.604;2023-11-21T02:50:05;23.00;;;10.73;;
31282;SDS011;17915;52.540;13.604;2023-11-21T02:52:33;31.98;;;9.80;;
31282;SDS011;17915;52.540;13.604;2023-11-21T02:54:59;17.33;;;8.82;;
31282;SDS011;17915;52.540;13.604;2023-11-21T02:57:24;25.27;;;10.37;;
31282;SDS011;17915;52.540;13.604;2023-11-21T02:59:49;20.40;;;9.40;;
31282;SDS011;17915;52.540;13.604;2023-11-21T03:02:15;22.17;;;9.63;;
31282;SDS011;17915;52.540;13.604;2023-11-21T03:04:40;15.75;;;8.95;;
31282;SDS011;17915;52.540;13.604;2023-11-21T03:09:32;9.27;;;6.70;;
31282;SDS011;17915;52.540;13.604;2023-11-21T03:11:58;17.70;;;7.70;;
31282;SDS011;17915;52.540;13.604;2023-11-21T03:14:23;11.87;;;7.33;;
31282;SDS011;17915;52.540;13.604;2023-11-21T03:16:49;12.93;;;8.30;;
31282;SDS011;17915;52.540;13.604;2023-11-21T03:19:14;14.93;;;8.57;;
31282;SDS011;17915;52.540;13.604;2023-11-21T03:21:40;15.50;;;7.53;;
31282;SDS011;17915;52.540;13.604;2023-11-21T03:24:05;13.27;;;6.60;;
31282;SDS011;17915;52.540;13.604;2023-11-21T03:26:32;9.35;;;7.15;;
31282;SDS011;17915;52.540;13.604;2023-11-21T03:28:57;11.50;;;7.30;;
31282;SDS011;17915;52.540;13.604;2023-11-21T03:31:23;13.13;;;7.40;;
31282;SDS011;17915;52.540;13.604;2023-11-21T03:33:48;11.13;;;7.83;;
31282;SDS011;17915;52.540;13.604;2023-11-21T03:36:13;13.30;;;8.37;;
31282;SDS011;17915;52.540;13.604;2023-11-21T03:38:43;10.70;;;7.95;;
31282;SDS011;17915;52.540;13.604;2023-11-21T03:41:08;15.03;;;8.27;;
31282;SDS011;17915;52.540;13.604;2023-11-21T03:43:36;17.67;;;8.20;;
31282;SDS011;17915;52.540;13.604;2023-11-21T03:46:02;14.27;;;8.60;;
31282;SDS011;17915;52.540;13.604;2023-11-21T03:48:28;13.48;;;8.20;;
31282;SDS011;17915;52.540;13.604;2023-11-21T03:50:53;11.37;;;7.43;;
31282;SDS011;17915;52.540;13.604;2023-11-21T03:53:19;12.77;;;7.93;;
31282;SDS011;17915;52.540;13.604;2023-11-21T03:55:44;11.77;;;7.37;;
31282;SDS011;17915;52.540;13.604;2023-11-21T03:58:09;9.47;;;6.27;;
31282;SDS011;17915;52.540;13.604;2023-11-21T04:00:35;13.53;;;7.13;;
31282;SDS011;17915;52.540;13.604;2023-11-21T04:03:00;13.30;;;6.50;;
31282;SDS011;17915;52.540;13.604;2023-11-21T04:05:25;10.07;;;6.23;;
31282;SDS011;17915;52.540;13.604;2023-11-21T04:07:51;9.93;;;6.50;;
31282;SDS011;17915;52.540;13.604;2023-11-21T04:10:17;9.02;;;5.22;;
31282;SDS011;17915;52.540;13.604;2023-11-21T04:12:43;10.65;;;6.65;;
31282;SDS011;17915;52.540;13.604;2023-11-21T04:15:08;13.23;;;5.37;;
31282;SDS011;17915;52.540;13.604;2023-11-21T04:17:34;8.55;;;5.93;;
31282;SDS011;17915;52.540;13.604;2023-11-21T04:20:01;11.10;;;7.47;;
31282;SDS011;17915;52.540;13.604;2023-11-21T04:22:28;7.75;;;4.47;;
31282;SDS011;17915;52.540;13.604;2023-11-21T04:24:53;12.30;;;6.57;;
31282;SDS011;17915;52.540;13.604;2023-11-21T04:27:20;10.82;;;5.13;;
31282;SDS011;17915;52.540;13.604;2023-11-21T04:29:46;5.73;;;5.07;;
31282;SDS011;17915;52.540;13.604;2023-11-21T04:32:11;5.13;;;4.60;;
31282;SDS011;17915;52.540;13.604;2023-11-21T04:34:37;6.72;;;4.85;;
31282;SDS011;17915;52.540;13.604;2023-11-21T04:37:03;9.73;;;4.70;;
31282;SDS011;17915;52.540;13.604;2023-11-21T04:39:31;7.10;;;4.43;;
31282;SDS011;17915;52.540;13.604;2023-11-21T04:41:56;6.93;;;4.97;;
31282;SDS011;17915;52.540;13.604;2023-11-21T04:44:21;8.97;;;4.93;;
31282;SDS011;17915;52.540;13.604;2023-11-21T04:46:47;8.63;;;4.77;;
31282;SDS011;17915;52.540;13.604;2023-11-21T04:49:12;8.17;;;5.60;;
31282;SDS011;17915;52.540;13.604;2023-11-21T04:51:38;3.73;;;3.37;;
31282;SDS011;17915;52.540;13.604;2023-11-21T04:54:03;5.37;;;4.87;;
31282;SDS011;17915;52.540;13.604;2023-11-21T04:56:30;5.75;;;4.35;;
31282;SDS011;17915;52.540;13.604;2023-11-21T04:58:56;4.87;;;4.27;;
31282;SDS011;17915;52.540;13.604;2023-11-21T05:01:21;5.27;;;3.30;;
31282;SDS011;17915;52.540;13.604;2023-11-21T05:03:47;5.43;;;4.57;;
31282;SDS011;17915;52.540;13.604;2023-11-21T05:06:13;9.27;;;3.95;;
31282;SDS011;17915;52.540;13.604;2023-11-21T05:08:39;5.97;;;4.30;;
31282;SDS011;17915;52.540;13.604;2023-11-21T05:11:04;5.93;;;4.33;;
31282;SDS011;17915;52.540;13.604;2023-11-21T05:13:33;8.65;;;4.30;;
31282;SDS011;17915;52.540;13.604;2023-11-21T05:15:59;6.00;;;3.40;;
31282;SDS011;17915;52.540;13.604;2023-11-21T05:18:24;4.73;;;3.90;;
31282;SDS011;17915;52.540;13.604;2023-11-21T05:20:52;6.57;;;4.57;;
31282;SDS011;17915;52.540;13.604;2023-11-21T05:25:43;6.65;;;4.20;;
31282;SDS011;17915;52.540;13.604;2023-11-21T05:28:09;6.53;;;4.87;;
31282;SDS011;17915;52.540;13.604;2023-11-21T05:30:34;7.90;;;5.37;;
31282;SDS011;17915;52.540;13.604;2023-11-21T05:32:59;9.33;;;5.73;;
31282;SDS011;17915;52.540;13.604;2023-11-21T05:35:25;8.33;;;4.93;;
31282;SDS011;17915;52.540;13.604;2023-11-21T05:37:51;9.73;;;4.60;;
31282;SDS011;17915;52.540;13.604;2023-11-21T05:40:17;7.17;;;4.33;;
31282;SDS011;17915;52.540;13.604;2023-11-21T05:42:42;8.53;;;5.20;;
31282;SDS011;17915;52.540;13.604;2023-11-21T05:45:08;9.15;;;6.53;;
31282;SDS011;17915;52.540;13.604;2023-11-21T05:47:44;5.57;;;5.07;;
31282;SDS011;17915;52.540;13.604;2023-11-21T05:50:11;6.15;;;4.50;;
31282;SDS011;17915;52.540;13.604;2023-11-21T05:52:45;10.85;;;5.20;;
31282;SDS011;17915;52.540;13.604;2023-11-21T05:55:12;5.40;;;4.68;;
31282;SDS011;17915;52.540;13.604;2023-11-21T05:57:38;7.57;;;5.40;;
31282;SDS011;17915;52.540;13.604;2023-11-21T06:02:36;4.88;;;3.67;;
31282;SDS011;17915;52.540;13.604;2023-11-21T06:05:08;8.07;;;5.35;;
31282;SDS011;17915;52.540;13.604;2023-11-21T06:07:34;6.05;;;5.05;;
31282;SDS011;17915;52.540;13.604;2023-11-21T06:10:01;5.47;;;3.88;;
31282;SDS011;17915;52.540;13.604;2023-11-21T06:12:30;6.85;;;4.13;;
31282;SDS011;17915;52.540;13.604;2023-11-21T06:14:56;8.93;;;5.50;;
31282;SDS011;17915;52.540;13.604;2023-11-21T06:17:21;7.70;;;5.27;;
31282;SDS011;17915;52.540;13.604;2023-11-21T06:19:47;8.43;;;5.27;;
31282;SDS011;17915;52.540;13.604;2023-11-21T06:22:12;12.50;;;4.40;;
31282;SDS011;17915;52.540;13.604;2023-11-21T06:24:37;7.60;;;5.83;;
31282;SDS011;17915;52.540;13.604;2023-11-21T06:27:03;7.37;;;5.70;;
31282;SDS011;17915;52.540;13.604;2023-11-21T06:29:30;6.45;;;5.10;;
31282;SDS011;17915;52.540;13.604;2023-11-21T06:31:55;6.07;;;4.73;;
31282;SDS011;17915;52.540;13.604;2023-11-21T06:34:21;5.67;;;5.07;;
31282;SDS011;17915;52.540;13.604;2023-11-21T06:36:46;9.53;;;5.47;;
31282;SDS011;17915;52.540;13.604;2023-11-21T06:39:12;7.35;;;4.65;;
31282;SDS011;17915;52.540;13.604;2023-11-21T06:41:40;4.90;;;4.38;;
31282;SDS011;17915;52.540;13.604;2023-11-21T06:44:05;7.83;;;5.30;;
31282;SDS011;17915;52.540;13.604;2023-11-21T06:46:30;5.07;;;4.67;;
31282;SDS011;17915;52.540;13.604;2023-11-21T06:48:56;7.00;;;4.73;;
31282;SDS011;17915;52.540;13.604;2023-11-21T06:51:21;4.27;;;3.97;;
31282;SDS011;17915;52.540;13.604;2023-11-21T06:53:46;8.80;;;5.50;;
31282;SDS011;17915;52.540;13.604;2023-11-21T06:56:16;5.13;;;4.60;;
31282;SDS011;17915;52.540;13.604;2023-11-21T06:58:42;5.82;;;4.30;;
31282;SDS011;17915;52.540;13.604;2023-11-21T07:01:07;7.33;;;4.17;;
31282;SDS011;17915;52.540;13.604;2023-11-21T07:03:33;4.77;;;4.03;;
31282;SDS011;17915;52.540;13.604;2023-11-21T07:05:58;4.20;;;3.80;;
31282;SDS011;17915;52.540;13.604;2023-11-21T07:08:23;9.83;;;5.47;;
31282;SDS011;17915;52.540;13.604;2023-11-21T07:10:49;5.77;;;5.17;;
31282;SDS011;17915;52.540;13.604;2023-11-21T07:13:14;4.80;;;4.33;;
31282;SDS011;17915;52.540;13.604;2023-11-21T07:15:40;5.17;;;4.73;;
31282;SDS011;17915;52.540;13.604;2023-11-21T07:18:05;12.35;;;5.85;;
31282;SDS011;17915;52.540;13.604;2023-11-21T07:20:32;9.65;;;5.65;;
31282;SDS011;17915;52.540;13.604;2023-11-21T07:22:58;9.00;;;4.70;;
31282;SDS011;17915;52.540;13.604;2023-11-21T07:27:50;9.50;;;5.53;;
31282;SDS011;17915;52.540;13.604;2023-11-21T07:30:15;25.47;;;6.43;;
31282;SDS011;17915;52.540;13.604;2023-11-21T07:32:41;14.10;;;8.40;;
31282;SDS011;17915;52.540;13.604;2023-11-21T07:35:06;21.07;;;8.13;;
31282;SDS011;17915;52.540;13.604;2023-11-21T07:37:33;15.30;;;7.13;;
31282;SDS011;17915;52.540;13.604;2023-11-21T07:39:58;20.67;;;8.53;;
31282;SDS011;17915;52.540;13.604;2023-11-21T07:42:24;22.57;;;7.77;;
31282;SDS011;17915;52.540;13.604;2023-11-21T07:44:51;27.05;;;8.57;;
31282;SDS011;17915;52.540;13.604;2023-11-21T07:47:17;30.10;;;9.02;;
31282;SDS011;17915;52.540;13.604;2023-11-21T07:49:42;19.67;;;8.17;;
31282;SDS011;17915;52.540;13.604;2023-11-21T07:52:09;23.27;;;8.20;;
31282;SDS011;17915;52.540;13.604;2023-11-21T07:54:35;25.38;;;8.00;;
31282;SDS011;17915;52.540;13.604;2023-11-21T07:57:01;29.65;;;9.82;;
31282;SDS011;17915;52.540;13.604;2023-11-21T07:59:26;19.27;;;8.73;;
31282;SDS011;17915;52.540;13.604;2023-11-21T08:01:52;25.90;;;9.40;;
31282;SDS011;17915;52.540;13.604;2023-11-21T08:04:19;25.25;;;9.85;;
31282;SDS011;17915;52.540;13.604;2023-11-21T08:06:44;43.37;;;10.90;;
31282;SDS011;17915;52.540;13.604;2023-11-21T08:09:09;21.30;;;8.90;;
31282;SDS011;17915;52.540;13.604;2023-11-21T08:11:37;24.05;;;9.02;;
31282;SDS011;17915;52.540;13.604;2023-11-21T08:14:04;26.13;;;9.80;;
31282;SDS011;17915;52.540;13.604;2023-11-21T08:16:30;34.35;;;10.68;;
31282;SDS011;17915;52.540;13.604;2023-11-21T08:18:55;27.53;;;9.37;;
31282;SDS011;17915;52.540;13.604;2023-11-21T08:21:21;30.60;;;10.18;;
31282;SDS011;17915;52.540;13.604;2023-11-21T08:23:49;28.67;;;10.93;;
31282;SDS011;17915;52.540;13.604;2023-11-21T08:26:18;33.10;;;10.75;;
31282;SDS011;17915;52.540;13.604;2023-11-21T08:28:44;21.87;;;11.40;;
31282;SDS011;17915;52.540;13.604;2023-11-21T08:31:09;19.80;;;7.90;;
31282;SDS011;17915;52.540;13.604;2023-11-21T08:33:35;21.43;;;7.87;;
31282;SDS011;17915;52.540;13.604;2023-11-21T08:36:00;21.97;;;6.90;;
31282;SDS011;17915;52.540;13.604;2023-11-21T08:38:26;17.13;;;7.23;;
31282;SDS011;17915;52.540;13.604;2023-11-21T08:43:19;12.73;;;5.07;;
31282;SDS011;17915;52.540;13.604;2023-11-21T08:45:45;10.30;;;4.37;;
31282;SDS011;17915;52.540;13.604;2023-11-21T08:48:10;16.25;;;5.10;;
31282;SDS011;17915;52.540;13.604;2023-11-21T08:50:36;11.07;;;4.35;;
31282;SDS011;17915;52.540;13.604;2023-11-21T08:53:02;10.03;;;3.83;;
31282;SDS011;17915;52.540;13.604;2023-11-21T08:55:27;6.13;;;4.43;;
31282;SDS011;17915;52.540;13.604;2023-11-21T08:57:53;5.60;;;3.88;;
31282;SDS011;17915;52.540;13.604;2023-11-21T09:00:19;5.50;;;3.23;;
31282;SDS011;17915;52.540;13.604;2023-11-21T09:02:44;5.57;;;3.10;;
31282;SDS011;17915;52.540;13.604;2023-11-21T09:05:10;11.87;;;3.17;;
31282;SDS011;17915;52.540;13.604;2023-11-21T09:07:36;4.15;;;2.50;;
31282;SDS011;17915;52.540;13.604;2023-11-21T09:10:03;2.50;;;2.30;;
31282;SDS011;17915;52.540;13.604;2023-11-21T09:12:29;2.95;;;2.38;;
31282;SDS011;17915;52.540;13.604;2023-11-21T09:14:54;3.10;;;2.33;;
31282;SDS011;17915;52.540;13.604;2023-11-21T09:17:20;2.63;;;2.42;;
31282;SDS011;17915;52.540;13.604;2023-11-21T09:19:45;1.80;;;1.67;;
31282;SDS011;17915;52.540;13.604;2023-11-21T09:22:15;3.03;;;2.30;;
31282;SDS011;17915;52.540;13.604;2023-11-21T09:24:41;2.35;;;2.13;;
31282;SDS011;17915;52.540;13.604;2023-11-21T09:27:07;2.80;;;2.60;;
31282;SDS011;17915;52.540;13.604;2023-11-21T09:29:33;6.67;;;2.57;;
31282;SDS011;17915;52.540;13.604;2023-11-21T09:31:58;6.97;;;3.23;;
31282;SDS011;17915;52.540;13.604;2023-11-21T09:34:26;4.25;;;1.98;;
31282;SDS011;17915;52.540;13.604;2023-11-21T09:36:52;4.00;;;2.73;;
31282;SDS011;17915;52.540;13.604;2023-11-21T09:39:18;2.63;;;2.33;;
31282;SDS011;17915;52.540;13.604;2023-11-21T09:41:44;2.10;;;1.97;;
31282;SDS011;17915;52.540;13.604;2023-11-21T09:44:14;7.28;;;1.90;;
31282;SDS011;17915;52.540;13.604;2023-11-21T09:46:43;2.00;;;1.90;;
31282;SDS011;17915;52.540;13.604;2023-11-21T09:49:09;1.55;;;1.45;;
31282;SDS011;17915;52.540;13.604;2023-11-21T09:51:42;3.00;;;1.60;;
31282;SDS011;17915;52.540;13.604;2023-11-21T09:54:08;1.27;;;1.25;;
31282;SDS011;17915;52.540;13.604;2023-11-21T09:56:37;1.38;;;1.38;;
31282;SDS011;17915;52.540;13.604;2023-11-21T09:59:03;1.70;;;1.58;;
31282;SDS011;17915;52.540;13.604;2023-11-21T10:01:34;5.38;;;2.20;;
31282;SDS011;17915;52.540;13.604;2023-11-21T10:04:01;2.00;;;1.90;;
31282;SDS011;17915;52.540;13.604;2023-11-21T10:06:26;1.80;;;1.50;;
31282;SDS011;17915;52.540;13.604;2023-11-21T10:08:53;1.55;;;1.50;;
31282;SDS011;17915;52.540;13.604;2023-11-21T10:11:22;4.55;;;1.77;;
31282;SDS011;17915;52.540;13.604;2023-11-21T10:13:49;1.92;;;1.83;;
31282;SDS011;17915;52.540;13.604;2023-11-21T10:16:19;2.25;;;1.77;;
31282;SDS011;17915;52.540;13.604;2023-11-21T10:18:46;3.85;;;2.17;;
31282;SDS011;17915;52.540;13.604;2023-11-21T10:21:12;1.63;;;1.58;;
31282;SDS011;17915;52.540;13.604;2023-11-21T10:23:38;2.50;;;2.30;;
31282;SDS011;17915;52.540;13.604;2023-11-21T10:26:04;2.13;;;2.03;;
31282;SDS011;17915;52.540;13.604;2023-11-21T10:28:30;1.70;;;1.60;;
31282;SDS011;17915;52.540;13.604;2023-11-21T10:30:55;2.70;;;2.60;;
31282;SDS011;17915;52.540;13.604;2023-11-21T10:33:27;1.80;;;1.67;;
31282;SDS011;17915;52.540;13.604;2023-11-21T10:35:53;1.90;;;1.80;;
31282;SDS011;17915;52.540;13.604;2023-11-21T10:38:20;2.05;;;1.95;;
31282;SDS011;17915;52.540;13.604;2023-11-21T10:40:48;2.38;;;2.22;;
31282;SDS011;17915;52.540;13.604;2023-11-21T10:43:14;2.53;;;1.88;;
31282;SDS011;17915;52.540;13.604;2023-11-21T10:45:40;2.03;;;1.92;;
31282;SDS011;17915;52.540;13.604;2023-11-21T10:48:10;3.28;;;1.83;;
31282;SDS011;17915;52.540;13.604;2023-11-21T10:50:41;2.78;;;2.58;;
31282;SDS011;17915;52.540;13.604;2023-11-21T10:53:06;2.00;;;1.90;;
31282;SDS011;17915;52.540;13.604;2023-11-21T10:55:33;5.03;;;2.40;;
31282;SDS011;17915;52.540;13.604;2023-11-21T10:58:00;2.92;;;2.72;;
31282;SDS011;17915;52.540;13.604;2023-11-21T11:00:30;2.17;;;2.08;;
31282;SDS011;17915;52.540;13.604;2023-11-21T11:02:57;3.60;;;2.80;;
31282;SDS011;17915;52.540;13.604;2023-11-21T11:05:24;3.35;;;2.63;;
31282;SDS011;17915;52.540;13.604;2023-11-21T11:07:51;3.78;;;2.78;;
31282;SDS011;17915;52.540;13.604;2023-11-21T11:10:25;4.43;;;2.67;;
31282;SDS011;17915;52.540;13.604;2023-11-21T11:12:52;3.00;;;2.42;;
31282;SDS011;17915;52.540;13.604;2023-11-21T11:17:44;2.45;;;2.25;;
31282;SDS011;17915;52.540;13.604;2023-11-21T11:20:11;2.47;;;2.28;;
31282;SDS011;17915;52.540;13.604;2023-11-21T11:22:48;2.55;;;2.08;;
31282;SDS011;17915;52.540;13.604;2023-11-21T11:25:27;2.10;;;1.90;;
31282;SDS011;17915;52.540;13.604;2023-11-21T11:30:52;3.03;;;2.58;;
31282;SDS011;17915;52.540;13.604;2023-11-21T11:33:33;2.72;;;2.53;;
31282;SDS011;17915;52.540;13.604;2023-11-21T11:38:32;2.57;;;2.30;;
31282;SDS011;17915;52.540;13.604;2023-11-21T11:41:04;2.85;;;2.65;;
31282;SDS011;17915;52.540;13.604;2023-11-21T11:43:30;2.45;;;2.25;;
31282;SDS011;17915;52.540;13.604;2023-11-21T11:46:09;2.25;;;2.15;;
31282;SDS011;17915;52.540;13.604;2023-11-21T11:48:37;5.00;;;2.40;;
31282;SDS011;17915;52.540;13.604;2023-11-21T11:51:05;2.70;;;2.50;;
31282;SDS011;17915;52.540;13.604;2023-11-21T11:53:45;2.40;;;2.20;;
31282;SDS011;17915;52.540;13.604;2023-11-21T11:58:59;4.65;;;2.38;;
31282;SDS011;17915;52.540;13.604;2023-11-21T12:01:27;2.60;;;2.50;;
31282;SDS011;17915;52.540;13.604;2023-11-21T12:04:36;2.75;;;2.55;;
31282;SDS011;17915;52.540;13.604;2023-11-21T12:06:45;3.05;;;2.70;;
31282;SDS011;17915;52.540;13.604;2023-11-21T12:09:17;2.85;;;1.95;;
31282;SDS011;17915;52.540;13.604;2023-11-21T12:11:44;2.05;;;1.85;;
31282;SDS011;17915;52.540;13.604;2023-11-21T12:16:35;2.08;;;1.98;;
31282;SDS011;17915;52.540;13.604;2023-11-21T12:19:01;2.08;;;1.98;;
31282;SDS011;17915;52.540;13.604;2023-11-21T12:21:27;2.53;;;2.30;;
31282;SDS011;17915;52.540;13.604;2023-11-21T12:23:53;2.63;;;2.42;;
31282;SDS011;17915;52.540;13.604;2023-11-21T12:26:18;2.30;;;2.20;;
31282;SDS011;17915;52.540;13.604;2023-11-21T12:28:43;1.93;;;1.90;;
31282;SDS011;17915;52.540;13.604;2023-11-21T12:31:09;2.40;;;2.20;;
31282;SDS011;17915;52.540;13.604;2023-11-21T12:33:35;2.72;;;2.53;;
31282;SDS011;17915;52.540;13.604;2023-11-21T12:36:01;2.83;;;2.60;;
31282;SDS011;17915;52.540;13.604;2023-11-21T12:38:33;2.37;;;2.10;;
31282;SDS011;17915;52.540;13.604;2023-11-21T12:41:00;2.38;;;2.10;;
31282;SDS011;17915;52.540;13.604;2023-11-21T12:43:25;2.50;;;2.40;;
31282;SDS011;17915;52.540;13.604;2023-11-21T12:45:51;4.77;;;4.30;;
31282;SDS011;17915;52.540;13.604;2023-11-21T12:48:17;2.50;;;2.40;;
31282;SDS011;17915;52.540;13.604;2023-11-21T12:50:49;2.05;;;1.90;;
31282;SDS011;17915;52.540;13.604;2023-11-21T12:53:18;1.92;;;1.83;;
31282;SDS011;17915;52.540;13.604;2023-11-21T12:55:43;3.53;;;2.43;;
31282;SDS011;17915;52.540;13.604;2023-11-21T12:58:14;2.58;;;2.40;;
31282;SDS011;17915;52.540;13.604;2023-11-21T13:00:47;3.13;;;2.35;;
31282;SDS011;17915;52.540;13.604;2023-11-21T13:03:15;3.03;;;2.80;;
31282;SDS011;17915;52.540;13.604;2023-11-21T13:05:43;2.53;;;2.42;;
31282;SDS011;17915;52.540;13.604;2023-11-21T13:08:12;3.50;;;3.20;;
31282;SDS011;17915;52.540;13.604;2023-11-21T13:10:42;7.65;;;3.30;;
31282;SDS011;17915;52.540;13.604;2023-11-21T13:13:11;4.13;;;3.72;;
31282;SDS011;17915;52.540;13.604;2023-11-21T13:15:47;4.38;;;3.55;;
31282;SDS011;17915;52.540;13.604;2023-11-21T13:18:33;3.53;;;3.22;;
31282;SDS011;17915;52.540;13.604;2023-11-21T13:21:00;3.85;;;3.50;;
31282;SDS011;17915;52.540;13.604;2023-11-21T13:23:28;5.07;;;3.92;;
31282;SDS011;17915;52.540;13.604;2023-11-21T13:25:54;4.95;;;3.40;;
31282;SDS011;17915;52.540;13.604;2023-11-21T13:28:20;4.00;;;3.70;;
31282;SDS011;17915;52.540;13.604;2023-11-21T13:30:49;5.68;;;4.47;;
31282;SDS011;17915;52.540;13.604;2023-11-21T13:33:17;5.80;;;4.97;;
31282;SDS011;17915;52.540;13.604;2023-11-21T13:35:52;5.43;;;4.30;;
31282;SDS011;17915;52.540;13.604;2023-11-21T13:38:18;8.57;;;5.03;;
31282;SDS011;17915;52.540;13.604;2023-11-21T13:40:48;5.35;;;4.95;;
31282;SDS011;17915;52.540;13.604;2023-11-21T13:43:17;6.03;;;4.75;;
31282;SDS011;17915;52.540;13.604;2023-11-21T13:45:46;8.77;;;5.53;;
31282;SDS011;17915;52.540;13.604;2023-11-21T13:48:12;6.70;;;5.15;;
31282;SDS011;17915;52.540;13.604;2023-11-21T13:50:45;6.80;;;5.10;;
31282;SDS011;17915;52.540;13.604;2023-11-21T13:53:21;7.25;;;6.07;;
31282;SDS011;17915;52.540;13.604;2023-11-21T13:55:54;7.82;;;6.20;;
31282;SDS011;17915;52.540;13.604;2023-11-21T13:58:23;12.45;;;7.07;;
31282;SDS011;17915;52.540;13.604;2023-11-21T14:00:59;10.75;;;6.88;;
31282;SDS011;17915;52.540;13.604;2023-11-21T14:03:26;10.43;;;8.05;;
31282;SDS011;17915;52.540;13.604;2023-11-21T14:06:04;15.35;;;7.63;;
31282;SDS011;17915;52.540;13.604;2023-11-21T14:08:39;12.07;;;8.43;;
31282;SDS011;17915;52.540;13.604;2023-11-21T14:11:05;12.95;;;9.23;;
31282;SDS011;17915;52.540;13.604;2023-11-21T14:13:31;16.98;;;9.40;;
31282;SDS011;17915;52.540;13.604;2023-11-21T14:15:57;19.92;;;11.27;;
31282;SDS011;17915;52.540;13.604;2023-11-21T14:20:56;23.27;;;11.80;;
31282;SDS011;17915;52.540;13.604;2023-11-21T14:23:22;26.00;;;13.95;;
31282;SDS011;17915;52.540;13.604;2023-11-21T14:25:48;24.10;;;12.38;;
31282;SDS011;17915;52.540;13.604;2023-11-21T14:30:40;23.00;;;12.32;;
31282;SDS011;17915;52.540;13.604;2023-11-21T14:33:07;22.52;;;12.65;;
31282;SDS011;17915;52.540;13.604;2023-11-21T14:35:33;43.08;;;14.95;;
31282;SDS011;17915;52.540;13.604;2023-11-21T14:37:59;34.75;;;14.60;;
31282;SDS011;17915;52.540;13.604;2023-11-21T14:40:26;29.02;;;14.45;;
31282;SDS011;17915;52.540;13.604;2023-11-21T14:42:56;23.20;;;13.27;;
31282;SDS011;17915;52.540;13.604;2023-11-21T14:45:22;28.17;;;13.60;;
31282;SDS011;17915;52.540;13.604;2023-11-21T14:47:51;34.70;;;13.75;;
31282;SDS011;17915;52.540;13.604;2023-11-21T14:50:35;26.73;;;15.40;;
31282;SDS011;17915;52.540;13.604;2023-11-21T14:53:04;31.33;;;13.20;;
31282;SDS011;17915;52.540;13.604;2023-11-21T14:55:31;30.45;;;14.13;;
31282;SDS011;17915;52.540;13.604;2023-11-21T14:58:18;27.45;;;11.73;;
31282;SDS011;17915;52.540;13.604;2023-11-21T15:00:53;28.05;;;13.65;;
31282;SDS011;17915;52.540;13.604;2023-11-21T15:03:23;24.73;;;12.95;;